Time;durP1;ratioP1;P1;durP2;ratioP2;P2;SDS_P1;SDS_P2;PMS_P1;PMS_P2;Temp;Humidity;BMP_temperature;BMP_pressure;BME280_temperature;BME280_humidity;BME280_pressure;Samples;Min_cycle;Max_cycle;Signal;HPM_P1;HPM_P2
2023/09/24 00:01:26;;;;;;;;;;;;;;;11.11;100.00;102218.19;5026306;28;1582;-75
2023/09/24 00:03:52;;;;;;;;;;;;;;;11.10;100.00;102228.69;5007555;28;1478;-75
2023/09/24 00:06:17;;;;;;;;;;;;;;;11.09;100.00;102230.44;5025171;28;1380;-74
2023/09/24 00:08:42;;;;;;;;;;;;;;;11.07;100.00;102227.13;5018580;28;1010;-75
2023/09/24 00:11:08;;;;;;;;;;;;;;;11.04;100.00;102231.66;5022948;28;1361;-75
2023/09/24 00:13:34;;;;;;;;;;;;;;;10.99;100.00;102239.72;5033597;28;1893;-74
2023/09/24 00:16:04;;;;;;;;;;;;;;;10.97;100.00;102241.56;5033335;28;1401;-76
2023/09/24 00:18:30;;;;;;;;;;;;;;;10.94;100.00;102246.09;5013751;28;1303;-74
2023/09/24 00:20:55;;;;;;;;;;;;;;;10.89;100.00;102249.81;5012311;28;1556;-74
2023/09/24 00:23:20;;;;;;;;;;;;;;;10.83;100.00;102251.94;5013506;28;1581;-75
2023/09/24 00:25:46;;;;;;;;;;;;;;;10.80;100.00;102249.53;5010066;28;1363;-74
2023/09/24 00:28:11;;;;;;;;;;;;;;;10.78;100.00;102244.44;5034549;28;1117;-74
2023/09/24 00:30:36;;;;;;;;;;;;;;;10.76;100.00;102259.25;5017742;28;1233;-75
2023/09/24 00:33:03;;;;;;;;;;;;;;;10.73;100.00;102248.25;5008333;28;1271;-75
2023/09/24 00:35:29;;;;;;;;;;;;;;;10.71;100.00;102255.28;5032942;28;1964;-74
2023/09/24 00:37:55;;;;;;;;;;;;;;;10.68;100.00;102256.28;5029370;28;1066;-75
2023/09/24 00:40:20;;;;;;;;;;;;;;;10.68;100.00;102245.91;5038433;28;1145;-74
2023/09/24 00:42:46;;;;;;;;;;;;;;;10.67;100.00;102251.19;5035620;28;1139;-76
2023/09/24 00:45:11;;;;;;;;;;;;;;;10.62;100.00;102252.31;5020310;28;1261;-73
2023/09/24 00:47:37;;;;;;;;;;;;;;;10.62;100.00;102252.31;5033356;28;1022;-72
2023/09/24 00:50:04;;;;;;;;;;;;;;;10.63;100.00;102248.78;5035216;28;1205;-72
2023/09/24 00:52:29;;;;;;;;;;;;;;;10.62;100.00;102256.66;5032746;28;1740;-73
2023/09/24 00:54:56;;;;;;;;;;;;;;;10.58;100.00;102261.19;5017425;28;1893;-74
2023/09/24 00:57:21;;;;;;;;;;;;;;;10.55;100.00;102258.78;5009974;28;1324;-74
2023/09/24 00:59:47;;;;;;;;;;;;;;;10.54;100.00;102266.63;5031860;28;1267;-74
2023/09/24 01:02:13;;;;;;;;;;;;;;;10.53;100.00;102264.97;5025015;28;1511;-74
2023/09/24 01:04:39;;;;;;;;;;;;;;;10.51;100.00;102265.06;5012410;28;1166;-74
2023/09/24 01:07:04;;;;;;;;;;;;;;;10.52;100.00;102266.72;5031252;28;1179;-75
2023/09/24 01:09:29;;;;;;;;;;;;;;;10.53;100.00;102263.22;5024292;28;1159;-75
2023/09/24 01:11:55;;;;;;;;;;;;;;;10.52;100.00;102251.16;5024488;28;1295;-75
2023/09/24 01:14:20;;;;;;;;;;;;;;;10.51;100.00;102254.69;5033512;28;1902;-75
2023/09/24 01:16:45;;;;;;;;;;;;;;;10.51;100.00;102259.88;5029637;28;1398;-74
2023/09/24 01:19:11;;;;;;;;;;;;;;;10.50;100.00;102258.22;5026976;28;1236;-74
2023/09/24 01:21:36;;;;;;;;;;;;;;;10.49;100.00;102248.75;5015872;28;1322;-74
2023/09/24 01:24:02;;;;;;;;;;;;;;;10.50;100.00;102252.19;5017822;28;1377;-76
2023/09/24 01:26:27;;;;;;;;;;;;;;;10.49;100.00;102255.69;5018589;28;1461;-75
2023/09/24 01:28:52;;;;;;;;;;;;;;;10.48;100.00;102254.84;5015508;28;1176;-75
2023/09/24 01:31:21;;;;;;;;;;;;;;;10.48;100.00;102254.84;5036583;28;1084;-74
2023/09/24 01:33:49;;;;;;;;;;;;;;;10.47;100.00;102253.19;5033315;28;1963;-74
2023/09/24 01:36:15;;;;;;;;;;;;;;;10.40;100.00;102244.09;5034555;28;1064;-74
2023/09/24 01:38:40;;;;;;;;;;;;;;;10.44;100.00;102253.38;5035142;28;1213;-75
2023/09/24 01:41:09;;;;;;;;;;;;;;;10.43;100.00;102254.28;5020898;28;1275;-76
2023/09/24 01:43:34;;;;;;;;;;;;;;;10.41;100.00;102250.97;5041743;28;1087;-74
2023/09/24 01:45:59;;;;;;;;;;;;;;;10.39;100.00;102255.41;5028059;28;984;-75
2023/09/24 01:48:25;;;;;;;;;;;;;;;10.34;100.00;102258.25;5035573;28;1113;-75
2023/09/24 01:50:52;;;;;;;;;;;;;;;10.33;100.00;102245.41;5020454;28;1801;-76
2023/09/24 01:53:17;;;;;;;;;;;;;;;10.31;100.00;102255.00;5010630;28;1396;-74
2023/09/24 01:55:43;;;;;;;;;;;;;;;10.24;100.00;102251.09;5032312;28;1995;-77
2023/09/24 01:58:08;;;;;;;;;;;;;;;10.21;100.00;102249.50;5024983;28;1108;-76
2023/09/24 02:00:34;;;;;;;;;;;;;;;10.23;100.00;102254.59;5030053;28;1285;-75
2023/09/24 02:02:59;;;;;;;;;;;;;;;10.19;100.00;102247.91;5014117;28;1314;-78
2023/09/24 02:05:30;;;;;;;;;;;;;;;10.18;100.00;102246.22;5031501;28;1102;-74
2023/09/24 02:07:56;;;;;;;;;;;;;;;10.15;100.00;102252.44;5026835;28;1120;-74
2023/09/24 02:10:21;;;;;;;;;;;;;;;10.15;100.00;102251.56;5014955;28;1119;-77
2023/09/24 02:12:47;;;;;;;;;;;;;;;10.15;100.00;102248.97;5026503;28;987;-76
2023/09/24 02:15:16;;;;;;;;;;;;;;;10.13;100.00;102248.25;5031614;28;1902;-74
2023/09/24 02:17:41;;;;;;;;;;;;;;;10.11;100.00;102246.59;5009611;28;2469;-74
2023/09/24 02:20:15;;;;;;;;;;;;;;;10.09;100.00;102253.63;5011250;28;1278;-74
2023/09/24 02:22:40;;;;;;;;;;;;;;;10.08;100.00;102249.34;5028052;28;1271;-74
2023/09/24 02:25:08;;;;;;;;;;;;;;;10.06;100.00;102253.78;5026317;28;1376;-74
2023/09/24 02:27:34;;;;;;;;;;;;;;;10.06;100.00;102261.56;5035160;28;1694;-76
2023/09/24 02:29:59;;;;;;;;;;;;;;;10.04;100.00;102268.59;5036400;28;1079;-75
2023/09/24 02:32:27;;;;;;;;;;;;;;;10.03;100.00;102269.50;5032052;28;1234;-76
2023/09/24 02:34:52;;;;;;;;;;;;;;;10.01;100.00;102268.75;5029406;28;1910;-74
2023/09/24 02:37:17;;;;;;;;;;;;;;;9.99;100.00;102265.44;5037761;28;1407;-74
2023/09/24 02:39:42;;;;;;;;;;;;;;;9.97;100.00;102264.66;5036324;28;1146;-74
2023/09/24 02:42:08;;;;;;;;;;;;;;;9.95;100.00;102266.50;5019055;28;1281;-75
2023/09/24 02:44:34;;;;;;;;;;;;;;;9.93;100.00;102270.94;5014915;28;1371;-75
2023/09/24 02:46:59;;;;;;;;;;;;;;;9.92;100.00;102277.06;5032362;28;1244;-75
2023/09/24 02:49:24;;;;;;;;;;;;;;;9.91;100.00;102270.19;5014376;28;1247;-79
2023/09/24 02:51:50;;;;;;;;;;;;;;;9.87;100.00;102271.28;5020981;28;1009;-81
2023/09/24 02:54:16;;;;;;;;;;;;;;;9.85;100.00;102270.53;5026808;28;1906;-81
2023/09/24 02:56:41;;;;;;;;;;;;;;;9.84;100.00;102263.69;5019167;28;1387;-81
2023/09/24 02:59:08;;;;;;;;;;;;;;;9.84;100.00;102268.84;5012141;28;1098;-81
2023/09/24 03:01:36;;;;;;;;;;;;;;;9.82;100.00;102266.38;5034447;28;1141;-81
2023/09/24 03:04:06;;;;;;;;;;;;;;;9.82;100.00;102273.31;5037434;28;1119;-82
2023/09/24 03:06:31;;;;;;;;;;;;;;;9.80;100.00;102277.72;5008752;28;1178;-81
2023/09/24 03:08:57;;;;;;;;;;;;;;;9.79;100.00;102276.88;5007919;28;1130;-81
2023/09/24 03:11:23;;;;;;;;;;;;;;;9.77;100.00;102272.72;5032303;28;1179;-81
2023/09/24 03:13:48;;;;;;;;;;;;;;;9.76;100.00;102286.59;5014385;28;1950;-81
2023/09/24 03:16:13;;;;;;;;;;;;;;;9.76;100.00;102276.22;5031070;28;1286;-81
2023/09/24 03:18:38;;;;;;;;;;;;;;;9.73;100.00;102282.41;5023976;28;1170;-82
2023/09/24 03:21:06;;;;;;;;;;;;;;;9.73;100.00;102289.34;5026235;28;1242;-81
2023/09/24 03:23:31;;;;;;;;;;;;;;;9.70;100.00;102286.94;5017331;28;1444;-82
2023/09/24 03:25:56;;;;;;;;;;;;;;;9.70;100.00;102281.75;5026794;28;1288;-81
2023/09/24 03:28:22;;;;;;;;;;;;;;;9.70;100.00;102286.94;5026171;28;1833;-82
2023/09/24 03:30:47;;;;;;;;;;;;;;;9.69;100.00;102286.09;5021750;28;1363;-81
2023/09/24 03:33:12;;;;;;;;;;;;;;;9.68;100.00;102286.16;5024479;28;1367;-79
2023/09/24 03:35:37;;;;;;;;;;;;;;;9.64;100.00;102292.44;5037059;28;1902;-82
2023/09/24 03:38:02;;;;;;;;;;;;;;;9.63;100.00;102290.75;5038831;28;1775;-79
2023/09/24 03:40:28;;;;;;;;;;;;;;;9.61;100.00;102296.03;5034503;28;1303;-80
2023/09/24 03:42:54;;;;;;;;;;;;;;;9.60;100.00;102296.94;5036638;28;1261;-81
2023/09/24 03:45:20;;;;;;;;;;;;;;;9.61;100.00;102302.97;5032554;28;1219;-81
2023/09/24 03:47:46;;;;;;;;;;;;;;;9.60;100.00;102298.72;5034663;28;1292;-81
2023/09/24 03:50:13;;;;;;;;;;;;;;;9.55;100.00;102302.38;5032239;28;1205;-81
2023/09/24 03:52:42;;;;;;;;;;;;;;;9.51;100.00;102313.81;5029901;28;1389;-81
2023/09/24 03:55:08;;;;;;;;;;;;;;;9.48;100.00;102308.81;5033185;28;1898;-80
2023/09/24 03:57:34;;;;;;;;;;;;;;;9.47;100.00;102309.72;5027232;28;1397;-82
2023/09/24 03:59:59;;;;;;;;;;;;;;;9.45;100.00;102314.13;5036286;28;1169;-80
2023/09/24 04:02:27;;;;;;;;;;;;;;;9.45;100.00;102314.13;5034209;28;1303;-81
2023/09/24 04:04:53;;;;;;;;;;;;;;;9.40;100.00;102321.31;5017851;28;1226;-80
2023/09/24 04:07:18;;;;;;;;;;;;;;;9.37;100.00;102313.72;5025886;28;1516;-81
2023/09/24 04:09:44;;;;;;;;;;;;;;;9.37;100.00;102320.66;5034443;28;1522;-81
2023/09/24 04:12:09;;;;;;;;;;;;;;;9.37;100.00;102316.31;5017448;28;1202;-82
2023/09/24 04:14:35;;;;;;;;;;;;;;;9.38;100.00;102317.97;5033502;28;1922;-79
2023/09/24 04:17:02;;;;;;;;;;;;;;;9.36;100.00;102317.22;5029046;28;1194;-81
2023/09/24 04:19:28;;;;;;;;;;;;;;;9.35;100.00;102312.09;5036286;28;1218;-81
2023/09/24 04:21:54;;;;;;;;;;;;;;;9.35;100.00;102328.50;5029262;28;1457;-82
2023/09/24 04:24:19;;;;;;;;;;;;;;;9.34;100.00;102321.63;5029972;28;1351;-82
2023/09/24 04:26:45;;;;;;;;;;;;;;;9.29;100.00;102321.06;5015194;28;1352;-82
2023/09/24 04:29:11;;;;;;;;;;;;;;;9.27;100.00;102320.28;5008918;28;1549;-81
2023/09/24 04:31:36;;;;;;;;;;;;;;;9.28;100.00;102324.53;5030400;28;1272;-80
2023/09/24 04:34:01;;;;;;;;;;;;;;;9.26;100.00;102331.56;5030521;28;1889;-81
2023/09/24 04:36:26;;;;;;;;;;;;;;;9.24;100.00;102330.81;5029194;28;1547;-81
2023/09/24 04:38:53;;;;;;;;;;;;;;;9.23;100.00;102329.13;5026118;28;1136;-81
2023/09/24 04:41:18;;;;;;;;;;;;;;;9.23;100.00;102334.28;5035422;28;1397;-82
2023/09/24 04:43:43;;;;;;;;;;;;;;;9.23;100.00;102336.88;5020320;28;1299;-80
2023/09/24 04:46:08;;;;;;;;;;;;;;;9.22;100.00;102337.81;5023266;28;1193;-81
2023/09/24 04:48:35;;;;;;;;;;;;;;;9.21;100.00;102336.13;5024827;28;1188;-82
2023/09/24 04:51:00;;;;;;;;;;;;;;;9.20;100.00;102340.47;5018103;28;1538;-82
2023/09/24 04:53:25;;;;;;;;;;;;;;;9.19;100.00;102338.81;5031846;28;1131;-81
2023/09/24 04:55:50;;;;;;;;;;;;;;;9.18;100.00;102341.50;5030433;28;1969;-82
2023/09/24 04:58:16;;;;;;;;;;;;;;;9.18;100.00;102346.66;5026144;28;1310;-79
2023/09/24 05:00:41;;;;;;;;;;;;;;;9.17;100.00;102348.38;5019268;28;1153;-82
2023/09/24 05:03:07;;;;;;;;;;;;;;;9.18;100.00;102346.66;5036840;28;1023;-81
2023/09/24 05:05:32;;;;;;;;;;;;;;;9.17;100.00;102350.16;5017493;28;1426;-81
2023/09/24 05:07:57;;;;;;;;;;;;;;;9.17;100.00;102350.16;5033377;28;1199;-81
2023/09/24 05:10:22;;;;;;;;;;;;;;;9.15;100.00;102346.81;5032182;28;1100;-82
2023/09/24 05:12:47;;;;;;;;;;;;;;;9.14;100.00;102353.75;5030386;28;1170;-81
2023/09/24 05:15:13;;;;;;;;;;;;;;;9.14;100.00;102350.31;5033010;28;1946;-81
2023/09/24 05:17:38;;;;;;;;;;;;;;;9.13;100.00;102348.66;5030300;28;1021;-81
2023/09/24 05:20:04;;;;;;;;;;;;;;;9.11;100.00;102345.28;5028262;28;1229;-80
2023/09/24 05:22:29;;;;;;;;;;;;;;;9.09;100.00;102357.47;5032690;28;1370;-82
2023/09/24 05:24:54;;;;;;;;;;;;;;;9.04;100.00;102350.78;5020543;28;1164;-82
2023/09/24 05:27:20;;;;;;;;;;;;;;;9.03;100.00;102367.22;5032428;28;1116;-81
2023/09/24 05:29:46;;;;;;;;;;;;;;;9.02;100.00;102368.16;5034174;28;1136;-79
2023/09/24 05:32:11;;;;;;;;;;;;;;;8.99;100.00;102373.47;5033410;28;1346;-81
2023/09/24 05:34:37;;;;;;;;;;;;;;;8.96;100.00;102376.22;5015314;28;2055;-82
2023/09/24 05:37:03;;;;;;;;;;;;;;;8.95;100.00;102377.13;5015979;28;1598;-81
2023/09/24 05:39:29;;;;;;;;;;;;;;;8.95;100.00;102377.13;5018297;28;1523;-81
2023/09/24 05:41:55;;;;;;;;;;;;;;;8.92;100.00;102382.44;5031534;28;1288;-80
2023/09/24 05:44:20;;;;;;;;;;;;;;;8.93;100.00;102385.88;5014608;23;1882;-79
2023/09/24 05:46:46;;;;;;;;;;;;;;;8.92;100.00;102386.78;5000261;28;1325;-79
2023/09/24 05:49:11;;;;;;;;;;;;;;;8.90;100.00;102386.03;5001226;28;1221;-79
2023/09/24 05:51:36;;;;;;;;;;;;;;;8.85;100.00;102386.25;4991679;28;1249;-80
2023/09/24 05:54:02;;;;;;;;;;;;;;;8.82;100.00;102391.56;4989341;28;1975;-79
2023/09/24 05:56:27;;;;;;;;;;;;;;;8.80;100.00;102393.41;5002094;28;1456;-80
2023/09/24 05:58:52;;;;;;;;;;;;;;;8.78;100.00;102396.06;4987141;28;1602;-79
2023/09/24 06:01:18;;;;;;;;;;;;;;;8.76;100.00;102399.63;4998963;28;1189;-80
2023/09/24 06:03:43;;;;;;;;;;;;;;;8.78;100.00;102405.59;4989109;28;1292;-80
2023/09/24 06:06:09;;;;;;;;;;;;;;;8.79;100.00;102407.25;5002093;28;1176;-79
2023/09/24 06:08:34;;;;;;;;;;;;;;;8.79;100.00;102396.91;4989385;28;1223;-80
2023/09/24 06:11:00;;;;;;;;;;;;;;;8.78;100.00;102400.41;4992688;28;1363;-79
2023/09/24 06:13:25;;;;;;;;;;;;;;;8.81;100.00;102395.06;4977813;28;1252;-80
2023/09/24 06:15:57;;;;;;;;;;;;;;;8.83;100.00;102401.03;4995504;28;1882;-80
2023/09/24 06:18:22;;;;;;;;;;;;;;;8.85;100.00;102398.38;4991620;28;1359;-78
2023/09/24 06:20:48;;;;;;;;;;;;;;;8.83;100.00;102398.44;4987490;28;1334;-79
2023/09/24 06:23:13;;;;;;;;;;;;;;;8.84;100.00;102405.28;4989978;28;1555;-79
2023/09/24 06:25:38;;;;;;;;;;;;;;;8.87;100.00;102410.28;4991941;28;1277;-79
2023/09/24 06:28:09;;;;;;;;;;;;;;;8.91;100.00;102411.84;5002152;28;1245;-80
2023/09/24 06:30:35;;;;;;;;;;;;;;;8.91;100.00;102406.66;4998354;28;1348;-80
2023/09/24 06:33:00;;;;;;;;;;;;;;;8.96;100.00;102409.03;5004354;28;1218;-79
2023/09/24 06:35:25;;;;;;;;;;;;;;;9.01;100.00;102418.22;4994624;28;1902;-79
2023/09/24 06:37:51;;;;;;;;;;;;;;;9.05;100.00;102421.50;4984827;28;1218;-80
2023/09/24 06:40:16;;;;;;;;;;;;;;;9.09;100.00;102425.59;4995249;28;1250;-80
2023/09/24 06:42:42;;;;;;;;;;;;;;;9.14;100.00;102427.97;4991436;28;1273;-80
2023/09/24 06:45:08;;;;;;;;;;;;;;;9.19;100.00;102426.00;4985017;28;1069;-79
2023/09/24 06:47:34;;;;;;;;;;;;;;;9.22;100.00;102433.59;4995694;28;1249;-80
2023/09/24 06:49:59;;;;;;;;;;;;;;;9.27;100.00;102437.63;4992789;28;1161;-79
2023/09/24 06:52:24;;;;;;;;;;;;;;;9.31;100.00;102436.56;4996126;28;1107;-81
2023/09/24 06:54:49;;;;;;;;;;;;;;;9.36;100.00;102438.94;5001698;28;1934;-79
2023/09/24 06:57:15;;;;;;;;;;;;;;;9.42;100.00;102442.97;4991152;28;1106;-80
2023/09/24 06:59:40;;;;;;;;;;;;;;;9.46;100.00;102439.28;4994680;28;1249;-80
2023/09/24 07:02:06;;;;;;;;;;;;;;;9.51;100.00;102445.06;4989384;28;1134;-79
2023/09/24 07:04:32;;;;;;;;;;;;;;;9.56;100.00;102451.69;4984604;28;1127;-80
2023/09/24 07:06:57;;;;;;;;;;;;;;;9.57;100.00;102437.81;5009427;28;1319;-79
2023/09/24 07:09:22;;;;;;;;;;;;;;;9.62;100.00;102439.34;4996750;28;1103;-79
2023/09/24 07:11:47;;;;;;;;;;;;;;;9.66;100.00;102446.03;4987578;28;1142;-80
2023/09/24 07:14:13;;;;;;;;;;;;;;;9.69;100.00;102441.56;4984961;28;1965;-80
2023/09/24 07:16:38;;;;;;;;;;;;;;;9.75;100.00;102445.56;4982915;28;1317;-80
2023/09/24 07:19:03;;;;;;;;;;;;;;;9.80;100.00;102440.97;4993595;28;1459;-81
2023/09/24 07:21:29;;;;;;;;;;;;;;;9.85;100.00;102447.56;5004596;28;1372;-80
2023/09/24 07:23:55;;;;;;;;;;;;;;;9.90;100.00;102443.91;5007779;28;1352;-80
2023/09/24 07:26:22;;;;;;;;;;;;;;;9.98;100.00;102452.16;4988300;28;1535;-79
2023/09/24 07:28:47;;;;;;;;;;;;;;;10.04;100.00;102447.47;4991528;28;1322;-81
2023/09/24 07:31:21;;;;;;;;;;;;;;;10.10;100.00;102454.91;4989751;28;1399;-80
2023/09/24 07:33:47;;;;;;;;;;;;;;;10.18;100.00;102453.66;4999222;28;1980;-80
2023/09/24 07:36:12;;;;;;;;;;;;;;;10.26;100.00;102452.34;4992742;28;1221;-81
2023/09/24 07:38:38;;;;;;;;;;;;;;;10.35;100.00;102461.38;4994433;28;1266;-81
2023/09/24 07:41:03;;;;;;;;;;;;;;;10.41;100.00;102455.88;4999998;28;1482;-81
2023/09/24 07:43:28;;;;;;;;;;;;;;;10.48;100.00;102459.78;4994879;28;1319;-80
2023/09/24 07:45:53;;;;;;;;;;;;;;;10.59;100.00;102465.22;4999293;28;1453;-81
2023/09/24 07:48:19;;;;;;;;;;;;;;;10.70;100.00;102456.00;4990810;28;1261;-80
2023/09/24 07:50:50;;;;;;;;;;;;;;;10.80;100.00;102475.34;4993689;28;1297;-81
2023/09/24 07:53:15;;;;;;;;;;;;;;;10.89;100.00;102462.66;4990311;28;1015;-81
2023/09/24 07:55:41;;;;;;;;;;;;;;;10.99;100.00;102468.16;5001293;28;1958;-81
2023/09/24 07:58:06;;;;;;;;;;;;;;;11.09;100.00;102474.53;5004618;28;1178;-81
2023/09/24 08:00:31;;;;;;;;;;;;;;;11.21;100.00;102479.94;5001567;28;1095;-82
2023/09/24 08:02:56;;;;;;;;;;;;;;;11.30;100.00;102471.63;4997529;28;1354;-80
2023/09/24 08:05:22;;;;;;;;;;;;;;;11.38;100.00;102464.19;4994486;28;1488;-79
2023/09/24 08:07:47;;;;;;;;;;;;;;;11.47;100.00;102475.81;5004819;28;1310;-81
2023/09/24 08:10:12;;;;;;;;;;;;;;;11.57;100.00;102475.16;4985423;28;1400;-81
2023/09/24 08:12:37;;;;;;;;;;;;;;;11.65;100.00;102478.16;4990665;28;1170;-83
2023/09/24 08:15:04;;;;;;;;;;;;;;;11.75;100.00;102480.19;5001912;28;1906;-81
2023/09/24 08:17:29;;;;;;;;;;;;;;;11.82;100.00;102478.94;4991627;28;1103;-80
2023/09/24 08:19:55;;;;;;;;;;;;;;;11.88;100.00;102473.38;4992118;28;1644;-81
2023/09/24 08:22:21;;;;;;;;;;;;;;;11.96;100.00;102481.53;4987382;28;1036;-81
2023/09/24 08:24:46;;;;;;;;;;;;;;;12.06;100.00;102485.25;4995112;28;1266;-82
2023/09/24 08:27:11;;;;;;;;;;;;;;;12.14;100.00;102490.81;4997065;28;1285;-83
2023/09/24 08:29:36;;;;;;;;;;;;;;;12.26;100.00;102493.56;5003028;28;1065;-79
2023/09/24 08:32:02;;;;;;;;;;;;;;;12.33;100.00;102489.66;4998613;28;1110;-82
2023/09/24 08:34:27;;;;;;;;;;;;;;;12.44;100.00;102497.63;5002793;28;1890;-80
2023/09/24 08:36:52;;;;;;;;;;;;;;;12.56;100.00;102491.69;4995639;28;1308;-81
2023/09/24 08:39:17;;;;;;;;;;;;;;;12.66;100.00;102492.75;5000575;28;1075;-81
2023/09/24 08:41:44;;;;;;;;;;;;;;;12.74;100.00;102490.50;5000431;28;1234;-81
2023/09/24 08:44:12;;;;;;;;;;;;;;;12.87;100.00;102494.91;4997048;28;1273;-81
2023/09/24 08:46:38;;;;;;;;;;;;;;;12.98;99.95;102492.44;4992515;28;1298;-80
2023/09/24 08:49:04;;;;;;;;;;;;;;;13.08;99.79;102490.91;5005625;28;932;-81
2023/09/24 08:51:32;;;;;;;;;;;;;;;13.16;99.77;102493.00;4996494;28;1384;-81
2023/09/24 08:53:57;;;;;;;;;;;;;;;13.24;99.11;102495.97;4997278;28;1902;-81
2023/09/24 08:56:25;;;;;;;;;;;;;;;13.33;99.15;102500.59;5000381;28;1005;-81
2023/09/24 08:58:50;;;;;;;;;;;;;;;13.42;98.62;102486.94;4987625;28;1294;-81
2023/09/24 09:01:16;;;;;;;;;;;;;;;13.51;98.73;102490.69;4991725;28;1238;-82
2023/09/24 09:03:41;;;;;;;;;;;;;;;13.61;98.10;102490.91;5001677;28;1253;-81
2023/09/24 09:06:06;;;;;;;;;;;;;;;13.69;98.08;102499.88;5008344;28;1145;-79
2023/09/24 09:08:50;;;;;;;;;;;;;;;13.78;98.06;102494.03;4988206;28;1593;-82
2023/09/24 09:11:17;;;;;;;;;;;;;;;13.91;97.95;102482.75;4991852;28;1183;-79
2023/09/24 09:13:43;;;;;;;;;;;;;;;14.00;97.50;102482.97;4996322;28;1316;-81
2023/09/24 09:16:09;;;;;;;;;;;;;;;14.14;96.61;102489.81;4993068;28;1890;-81
2023/09/24 09:18:35;;;;;;;;;;;;;;;14.19;96.52;102487.72;4991937;28;1250;-81
2023/09/24 09:21:00;;;;;;;;;;;;;;;14.25;96.01;102487.28;4986436;28;1111;-81
2023/09/24 09:23:29;;;;;;;;;;;;;;;14.31;95.68;102479.00;4989213;28;1328;-82
2023/09/24 09:25:54;;;;;;;;;;;;;;;14.42;95.27;102480.03;4989173;28;961;-79
2023/09/24 09:28:27;;;;;;;;;;;;;;;14.50;95.11;102469.91;4989404;28;1361;-80
2023/09/24 09:31:03;;;;;;;;;;;;;;;14.60;94.60;102473.50;4993523;28;1310;-80
2023/09/24 09:33:29;;;;;;;;;;;;;;;14.70;94.38;102471.91;4994536;28;1379;-81
2023/09/24 09:35:57;;;;;;;;;;;;;;;14.78;93.91;102459.09;4989610;28;1906;-80
2023/09/24 09:38:23;;;;;;;;;;;;;;;14.88;93.79;102454.06;4994637;28;1266;-80
2023/09/24 09:40:52;;;;;;;;;;;;;;;14.98;93.22;102456.81;4988622;28;1317;-80
2023/09/24 09:43:19;;;;;;;;;;;;;;;15.08;92.03;102452.56;5000179;28;1321;-81
2023/09/24 09:45:46;;;;;;;;;;;;;;;15.19;92.04;102451.75;4998868;28;1052;-80
2023/09/24 09:48:12;;;;;;;;;;;;;;;15.22;91.33;102441.09;4996901;28;1315;-80
2023/09/24 09:50:41;;;;;;;;;;;;;;;15.29;90.99;102450.13;5000947;28;1219;-81
2023/09/24 09:53:10;;;;;;;;;;;;;;;15.37;90.21;102451.22;4993610;28;1326;-80
2023/09/24 09:55:42;;;;;;;;;;;;;;;15.41;90.18;102436.94;4997181;28;1938;-80
2023/09/24 09:58:08;;;;;;;;;;;;;;;15.49;90.62;102433.75;5002758;28;1521;-81
2023/09/24 10:00:33;;;;;;;;;;;;;;;15.56;90.49;102434.13;5031495;28;1618;-82
2023/09/24 10:02:59;;;;;;;;;;;;;;;15.71;90.03;102435.56;5019137;28;1296;-80
2023/09/24 10:05:25;;;;;;;;;;;;;;;15.82;89.23;102435.56;5020774;28;1161;-81
2023/09/24 10:07:50;;;;;;;;;;;;;;;15.92;89.62;102425.22;5011989;28;1293;-81
2023/09/24 10:10:34;;;;;;;;;;;;;;;16.03;88.91;102424.38;5010236;28;1090;-81
2023/09/24 10:13:00;;;;;;;;;;;;;;;16.14;88.46;102419.09;5020369;28;1213;-80
2023/09/24 10:15:26;;;;;;;;;;;;;;;16.19;87.95;102411.72;5015398;28;1973;-79
2023/09/24 10:18:07;;;;;;;;;;;;;;;16.29;87.21;102420.50;5018668;28;1227;-81
2023/09/24 10:21:05;;;;;;;;;;;;;;;16.39;87.40;102405.69;5011312;28;1025;-81
2023/09/24 10:23:30;;;;;;;;;;;;;;;16.52;85.28;102417.81;5001939;28;1625;-80
2023/09/24 10:25:59;;;;;;;;;;;;;;;16.56;84.96;102413.97;5019876;28;1165;-81
2023/09/24 10:28:44;;;;;;;;;;;;;;;16.58;84.89;102423.38;5018747;28;1225;-81
2023/09/24 10:31:11;;;;;;;;;;;;;;;16.65;82.57;102418.47;5016972;28;1053;-81
2023/09/24 10:33:58;;;;;;;;;;;;;;;16.68;83.95;102423.44;5006123;28;1491;-81
2023/09/24 10:36:33;;;;;;;;;;;;;;;16.74;82.11;102420.34;5017699;28;1478;-82
2023/09/24 10:39:05;;;;;;;;;;;;;;;16.86;83.89;102416.72;5012914;28;1408;-81
2023/09/24 10:41:34;;;;;;;;;;;;;;;17.02;82.20;102418.06;5010589;28;1253;-81
2023/09/24 10:44:18;;;;;;;;;;;;;;;16.99;82.12;102416.53;5015706;28;1371;-81
2023/09/24 10:46:43;;;;;;;;;;;;;;;17.07;81.56;102413.25;5009888;28;1025;-81
2023/09/24 10:49:08;;;;;;;;;;;;;;;17.14;81.41;102409.16;5016389;28;1245;-82
2023/09/24 10:51:34;;;;;;;;;;;;;;;17.17;80.59;102414.16;5011741;28;1522;-81
2023/09/24 10:54:12;;;;;;;;;;;;;;;17.26;81.12;102413.34;5016591;28;1890;-81
2023/09/24 10:56:38;;;;;;;;;;;;;;;17.37;79.28;102421.16;5022604;28;1274;-82
2023/09/24 10:59:03;;;;;;;;;;;;;;;17.48;79.53;102418.44;5016331;28;1108;-81
2023/09/24 11:01:29;;;;;;;;;;;;;;;17.55;78.31;102417.91;5015734;28;1446;-82
2023/09/24 11:03:54;;;;;;;;;;;;;;;17.57;78.39;102410.75;5011977;28;1044;-82
2023/09/24 11:06:28;;;;;;;;;;;;;;;17.60;78.10;102420.97;5014436;28;1498;-82
2023/09/24 11:08:53;;;;;;;;;;;;;;;17.68;76.52;102423.78;5012909;28;1210;-82
2023/09/24 11:11:19;;;;;;;;;;;;;;;17.69;77.03;102420.19;5012940;28;1076;-82
2023/09/24 11:13:44;;;;;;;;;;;;;;;17.80;77.00;102407.00;5008076;28;1228;-82
2023/09/24 11:16:09;;;;;;;;;;;;;;;17.83;75.04;102401.47;5013647;28;1967;-83
2023/09/24 11:18:34;;;;;;;;;;;;;;;17.90;75.44;102407.88;5013367;28;1217;-82
2023/09/24 11:20:59;;;;;;;;;;;;;;;17.96;75.41;102401.25;5000892;28;1455;-82
2023/09/24 11:23:25;;;;;;;;;;;;;;;18.02;74.30;102409.41;5002840;28;1128;-81
2023/09/24 11:25:50;;;;;;;;;;;;;;;18.08;74.33;102415.91;5006092;28;1186;-82
2023/09/24 11:28:16;;;;;;;;;;;;;;;18.08;73.83;102415.09;5013460;28;1071;-81
2023/09/24 11:30:59;;;;;;;;;;;;;;;18.11;73.99;102420.06;5001504;28;1362;-81
2023/09/24 11:33:24;;;;;;;;;;;;;;;18.17;74.36;102409.84;4998971;28;984;-80
2023/09/24 11:35:51;;;;;;;;;;;;;;;18.26;74.01;102423.97;5014947;28;1910;-82
2023/09/24 11:38:26;;;;;;;;;;;;;;;18.35;73.42;102417.91;5008132;28;1213;-82
2023/09/24 11:40:51;;;;;;;;;;;;;;;18.43;72.91;102409.31;5003478;28;1480;-81
2023/09/24 11:43:16;;;;;;;;;;;;;;;18.48;73.28;102402.69;5014862;28;1073;-79
2023/09/24 11:45:55;;;;;;;;;;;;;;;18.54;72.09;102412.63;5029310;28;1421;-82
2023/09/24 11:48:22;;;;;;;;;;;;;;;18.55;71.97;102398.53;5013781;28;1312;-83
2023/09/24 11:50:48;;;;;;;;;;;;;;;18.53;72.26;102394.41;5013176;28;1579;-81
2023/09/24 11:53:14;;;;;;;;;;;;;;;18.61;70.08;102391.06;5013662;28;1198;-81
2023/09/24 11:55:41;;;;;;;;;;;;;;;18.69;72.15;102383.31;5026088;28;1902;-81
2023/09/24 11:58:06;;;;;;;;;;;;;;;18.69;71.61;102384.16;5009270;28;1336;-82
2023/09/24 12:00:33;;;;;;;;;;;;;;;18.72;71.15;102389.13;5020913;28;1399;-82
2023/09/24 12:02:59;;;;;;;;;;;;;;;18.66;69.93;102391.47;5014038;28;1244;-81
2023/09/24 12:05:25;;;;;;;;;;;;;;;18.57;70.10;102391.31;5022906;28;1323;-82
2023/09/24 12:07:50;;;;;;;;;;;;;;;18.52;69.85;102383.06;5017054;28;1442;-80
2023/09/24 12:10:16;;;;;;;;;;;;;;;18.52;68.20;102383.06;5010266;28;1790;-81
2023/09/24 12:12:41;;;;;;;;;;;;;;;18.54;69.94;102391.63;5013805;28;1190;-82
2023/09/24 12:15:07;;;;;;;;;;;;;;;18.56;67.59;102389.66;5001326;28;1906;-80
2023/09/24 12:17:32;;;;;;;;;;;;;;;18.61;68.89;102377.91;4996174;28;1068;-81
2023/09/24 12:19:58;;;;;;;;;;;;;;;18.67;68.68;102379.97;5004771;28;1184;-79
2023/09/24 12:22:23;;;;;;;;;;;;;;;18.77;68.44;102383.47;5008148;28;1234;-81
2023/09/24 12:24:49;;;;;;;;;;;;;;;18.87;68.16;102376.41;5013357;28;1253;-81
2023/09/24 12:27:14;;;;;;;;;;;;;;;18.94;62.09;102372.22;5008585;28;1208;-82
2023/09/24 12:29:39;;;;;;;;;;;;;;;18.96;67.09;102378.16;5013738;28;1137;-82
2023/09/24 12:32:04;;;;;;;;;;;;;;;18.96;66.79;102374.69;5013439;28;1177;-79
2023/09/24 12:34:29;;;;;;;;;;;;;;;18.98;64.95;102373.59;5019778;28;1975;-83
2023/09/24 12:36:55;;;;;;;;;;;;;;;19.02;63.32;102369.69;5012051;28;1053;-83
2023/09/24 12:39:20;;;;;;;;;;;;;;;19.07;65.49;102367.47;5017991;28;1380;-82